createdAt,value
2018-12-21T00:01:31.307Z,2.47
2018-12-21T00:03:59.838Z,2.67
2018-12-21T00:06:29.404Z,2.80
2018-12-21T00:08:58.034Z,2.93
2018-12-21T00:11:26.600Z,2.97
2018-12-21T00:13:55.102Z,3.23
2018-12-21T00:16:23.658Z,2.23
2018-12-21T00:18:52.155Z,5.70
2018-12-21T00:21:21.998Z,3.67
2018-12-21T00:23:51.033Z,2.17
2018-12-21T00:26:19.514Z,3.73
2018-12-21T00:28:47.998Z,2.63
2018-12-21T00:31:22.126Z,2.77
2018-12-21T00:33:55.949Z,2.60
2018-12-21T00:36:29.605Z,3.27
2018-12-21T00:39:03.349Z,3.57
2018-12-21T00:41:31.148Z,3.93
2018-12-21T00:45:03.753Z,2.50
2018-12-21T00:47:32.394Z,3.57
2018-12-21T00:50:01.002Z,3.67
2018-12-21T00:52:29.501Z,3.97
2018-12-21T00:54:58.059Z,2.63
2018-12-21T00:57:27.117Z,4.83
2018-12-21T00:59:55.606Z,2.37
2018-12-21T01:02:24.876Z,4.60
2018-12-21T01:04:53.342Z,3.60
2018-12-21T01:07:21.814Z,3.07
2018-12-21T01:09:50.303Z,2.77
2018-12-21T01:12:18.825Z,3.50
2018-12-21T01:14:47.414Z,3.73
2018-12-21T01:17:16.482Z,3.37
2018-12-21T01:19:45.117Z,3.30
2018-12-21T01:22:13.653Z,2.63
2018-12-21T01:24:42.820Z,4.47
2018-12-21T01:27:11.519Z,2.30
2018-12-21T01:29:40.097Z,3.70
2018-12-21T01:32:09.501Z,2.80
2018-12-21T01:34:37.948Z,4.47
2018-12-21T01:37:06.422Z,3.20
2018-12-21T01:39:35.426Z,3.00
2018-12-21T01:42:04.086Z,2.13
2018-12-21T01:44:32.546Z,2.70
2018-12-21T01:47:01.074Z,1.90
2018-12-21T01:49:29.506Z,2.33
2018-12-21T01:51:57.998Z,3.13
2018-12-21T01:54:26.520Z,4.17
2018-12-21T01:56:55.101Z,2.00
2018-12-21T01:59:23.560Z,5.50
2018-12-21T02:01:52.078Z,3.00
2018-12-21T02:04:20.806Z,3.00
2018-12-21T02:06:49.263Z,2.23
2018-12-21T02:09:18.319Z,2.20
2018-12-21T02:11:52.073Z,3.27
2018-12-21T02:14:20.762Z,4.47
2018-12-21T02:16:49.837Z,1.77
2018-12-21T02:19:18.305Z,1.97
2018-12-21T02:21:55.722Z,2.73
2018-12-21T02:24:18.189Z,3.80
2018-12-21T02:26:46.650Z,3.57
2018-12-21T02:29:15.258Z,4.10
2018-12-21T02:31:43.773Z,3.23
2018-12-21T02:34:12.361Z,3.33
2018-12-21T02:36:40.841Z,4.83
2018-12-21T02:39:09.389Z,4.40
2018-12-21T02:41:37.817Z,3.53
2018-12-21T02:44:06.465Z,3.17
2018-12-21T02:46:35.048Z,4.00
2018-12-21T02:49:03.621Z,4.63
2018-12-21T02:51:32.154Z,4.07
2018-12-21T02:54:00.626Z,2.30
2018-12-21T02:56:29.146Z,4.43
2018-12-21T02:58:57.719Z,2.90
2018-12-21T03:01:26.523Z,4.60
2018-12-21T03:03:55.718Z,3.27
2018-12-21T03:06:24.401Z,3.43
2018-12-21T03:08:52.904Z,3.20
2018-12-21T03:11:22.032Z,4.60
2018-12-21T03:13:50.526Z,2.20
2018-12-21T03:16:19.562Z,3.03
2018-12-21T03:18:49.077Z,2.07
2018-12-21T03:21:17.895Z,2.30
2018-12-21T03:23:46.387Z,5.60
2018-12-21T03:26:15.189Z,2.70
2018-12-21T03:28:43.964Z,3.27
2018-12-21T03:31:13.000Z,2.60
2018-12-21T03:33:43.064Z,3.13
2018-12-21T03:36:11.650Z,3.40
2018-12-21T03:38:40.377Z,1.27
2018-12-21T03:41:08.922Z,1.53
2018-12-21T03:43:37.648Z,1.90
2018-12-21T03:46:06.237Z,4.47
2018-12-21T03:48:34.729Z,1.63
2018-12-21T03:51:03.398Z,2.53
2018-12-21T03:53:32.174Z,1.93
2018-12-21T03:56:01.030Z,2.73
2018-12-21T03:58:30.038Z,1.70
2018-12-21T04:00:58.595Z,1.73
2018-12-21T04:03:27.326Z,3.33
2018-12-21T04:05:58.167Z,2.23
2018-12-21T04:08:26.671Z,1.20
2018-12-21T04:10:55.262Z,2.30
2018-12-21T04:13:23.723Z,1.33
2018-12-21T04:15:52.586Z,1.87
2018-12-21T04:18:21.839Z,1.67
2018-12-21T04:20:50.671Z,1.73
2018-12-21T04:23:19.766Z,2.77
2018-12-21T04:25:48.294Z,1.90
2018-12-21T04:28:16.825Z,1.40
2018-12-21T04:30:45.631Z,1.80
2018-12-21T04:33:14.414Z,3.53
2018-12-21T04:35:42.848Z,1.70
2018-12-21T04:38:11.477Z,0.90
2018-12-21T04:40:39.977Z,4.77
2018-12-21T04:43:08.471Z,1.17
2018-12-21T04:45:37.094Z,0.90
2018-12-21T04:48:06.211Z,3.90
2018-12-21T04:50:35.210Z,1.17
2018-12-21T04:53:03.801Z,1.63
2018-12-21T04:55:32.231Z,1.03
2018-12-21T04:58:00.703Z,2.40
2018-12-21T05:00:29.242Z,1.63
2018-12-21T05:02:57.779Z,1.50
2018-12-21T05:05:26.282Z,1.73
2018-12-21T05:07:55.327Z,1.17
2018-12-21T05:10:23.790Z,1.50
2018-12-21T05:12:52.362Z,1.10
2018-12-21T05:15:20.862Z,1.87
2018-12-21T05:17:50.207Z,1.37
2018-12-21T05:20:18.722Z,2.87
2018-12-21T05:22:52.246Z,1.67
2018-12-21T05:25:18.398Z,1.30
2018-12-21T05:27:47.077Z,1.43
2018-12-21T05:30:15.567Z,3.43
2018-12-21T05:32:44.198Z,3.23
2018-12-21T05:35:13.454Z,3.00
2018-12-21T05:37:41.914Z,3.60
2018-12-21T05:40:10.569Z,1.20
2018-12-21T05:42:39.129Z,0.60
2018-12-21T05:45:08.028Z,3.33
2018-12-21T05:47:36.561Z,1.53
2018-12-21T05:50:05.973Z,1.27
2018-12-21T05:52:34.452Z,5.50
2018-12-21T05:55:03.090Z,1.47
2018-12-21T05:57:31.567Z,0.70
2018-12-21T06:00:00.053Z,1.10
2018-12-21T06:02:29.249Z,1.00
2018-12-21T06:04:58.356Z,1.90
2018-12-21T06:07:26.856Z,1.37
2018-12-21T06:09:55.313Z,1.80
2018-12-21T06:12:23.885Z,1.63
2018-12-21T06:14:53.099Z,0.93
2018-12-21T06:17:21.720Z,0.60
2018-12-21T06:19:50.162Z,0.70
2018-12-21T06:22:18.917Z,2.50
2018-12-21T06:24:47.447Z,0.63
2018-12-21T06:27:15.983Z,0.93
2018-12-21T06:29:44.597Z,0.80
2018-12-21T06:32:13.174Z,1.30
2018-12-21T06:34:42.401Z,1.10
2018-12-21T06:37:11.086Z,2.63
2018-12-21T06:39:39.585Z,0.77
2018-12-21T06:42:08.072Z,4.97
2018-12-21T06:44:37.213Z,1.70
2018-12-21T06:47:06.489Z,0.87
2018-12-21T06:49:35.060Z,0.80
2018-12-21T06:52:03.638Z,2.43
2018-12-21T06:54:32.116Z,2.43
2018-12-21T06:57:00.872Z,3.60
2018-12-21T06:59:30.658Z,4.70
2018-12-21T07:01:59.235Z,4.30
2018-12-21T07:04:27.776Z,2.60
2018-12-21T07:06:56.248Z,3.60
2018-12-21T07:09:24.729Z,1.87
2018-12-21T07:11:53.385Z,3.03
2018-12-21T07:14:21.854Z,4.57
2018-12-21T07:16:50.338Z,1.73
2018-12-21T07:19:19.637Z,1.50
2018-12-21T07:21:48.416Z,1.93
2018-12-21T07:24:17.311Z,0.70
2018-12-21T07:26:45.808Z,2.30
2018-12-21T07:29:14.316Z,1.00
2018-12-21T07:31:42.793Z,0.73
2018-12-21T07:34:11.243Z,0.70
2018-12-21T07:36:40.066Z,1.40
2018-12-21T07:39:09.073Z,0.70
2018-12-21T07:41:37.591Z,2.77
2018-12-21T07:44:06.267Z,2.70
2018-12-21T07:46:35.527Z,1.53
2018-12-21T07:49:04.175Z,4.50
2018-12-21T07:51:32.660Z,0.70
2018-12-21T07:54:01.944Z,0.90
2018-12-21T07:56:31.163Z,4.50
2018-12-21T07:58:59.694Z,1.40
2018-12-21T08:01:28.230Z,2.10
2018-12-21T08:03:57.547Z,1.60
2018-12-21T08:06:26.029Z,1.37
2018-12-21T08:08:54.671Z,0.93
2018-12-21T08:11:23.296Z,1.30
2018-12-21T08:13:52.086Z,1.67
2018-12-21T08:16:20.786Z,1.53
2018-12-21T08:18:49.281Z,0.83
2018-12-21T08:21:17.853Z,1.10
2018-12-21T08:23:46.365Z,2.37
2018-12-21T08:26:14.934Z,2.53
2018-12-21T08:28:44.109Z,1.70
2018-12-21T08:31:12.688Z,7.27
2018-12-21T08:33:41.411Z,3.80
2018-12-21T08:36:10.144Z,3.30
2018-12-21T08:38:39.462Z,7.03
2018-12-21T08:41:08.050Z,3.47
2018-12-21T08:43:36.760Z,2.03
2018-12-21T08:46:05.383Z,1.50
2018-12-21T08:48:33.845Z,2.03
2018-12-21T08:51:02.427Z,2.63
2018-12-21T08:53:31.263Z,3.93
2018-12-21T08:55:59.849Z,6.17
2018-12-21T08:58:28.513Z,27.30
2018-12-21T09:00:57.578Z,14.13
2018-12-21T09:03:26.265Z,2.27
2018-12-21T09:05:55.162Z,2.63
2018-12-21T09:08:23.724Z,2.30
2018-12-21T09:10:52.301Z,2.07
2018-12-21T09:13:20.862Z,2.13
2018-12-21T09:15:50.325Z,3.23
2018-12-21T09:18:19.638Z,3.70
2018-12-21T09:20:48.249Z,6.03
2018-12-21T09:23:16.775Z,1.40
2018-12-21T09:25:45.322Z,2.00
2018-12-21T09:28:13.850Z,10.53
2018-12-21T09:30:42.406Z,1.90
2018-12-21T09:33:11.104Z,2.70
2018-12-21T09:35:39.798Z,1.00
2018-12-21T09:38:08.499Z,2.83
2018-12-21T09:40:36.954Z,7.30
2018-12-21T09:43:06.073Z,3.37
2018-12-21T09:45:35.355Z,2.83
2018-12-21T09:48:03.965Z,1.30
2018-12-21T09:50:32.612Z,2.33
2018-12-21T09:53:01.914Z,3.80
2018-12-21T09:55:30.597Z,2.40
2018-12-21T09:57:59.407Z,4.27
2018-12-21T10:00:27.937Z,4.17
2018-12-21T10:02:56.411Z,2.63
2018-12-21T10:05:25.005Z,3.50
2018-12-21T10:07:53.612Z,1.40
2018-12-21T10:10:22.791Z,2.40
2018-12-21T10:12:53.465Z,0.87
2018-12-21T10:15:22.323Z,1.23
2018-12-21T10:17:50.800Z,1.63
2018-12-21T10:20:20.092Z,0.97
2018-12-21T10:22:49.432Z,1.43
2018-12-21T10:25:18.069Z,3.37
2018-12-21T10:27:46.585Z,1.40
2018-12-21T10:30:15.204Z,1.03
2018-12-21T10:32:43.850Z,1.70
2018-12-21T10:35:12.345Z,1.73
2018-12-21T10:37:42.329Z,0.70
2018-12-21T10:40:10.890Z,0.73
2018-12-21T10:42:39.482Z,0.70
2018-12-21T10:45:08.172Z,0.67
2018-12-21T10:47:36.763Z,1.03
2018-12-21T10:50:08.107Z,0.93
2018-12-21T10:52:36.735Z,1.17
2018-12-21T10:55:05.582Z,2.70
2018-12-21T10:57:34.071Z,2.00
2018-12-21T11:00:02.643Z,2.60
2018-12-21T11:02:31.313Z,2.83
2018-12-21T11:04:59.870Z,2.50
2018-12-21T11:07:28.423Z,2.67
2018-12-21T11:09:57.639Z,2.37
2018-12-21T11:12:26.193Z,3.27
2018-12-21T11:14:54.790Z,1.10
2018-12-21T11:17:23.439Z,2.10
2018-12-21T11:19:52.005Z,3.97
2018-12-21T11:22:20.585Z,2.97
2018-12-21T11:24:49.166Z,4.57
2018-12-21T11:27:17.722Z,3.80
2018-12-21T11:29:46.230Z,2.23
2018-12-21T11:32:14.824Z,5.47
2018-12-21T11:34:43.454Z,2.60
2018-12-21T11:37:12.106Z,1.57
2018-12-21T11:39:40.613Z,1.20
2018-12-21T11:42:09.385Z,1.70
2018-12-21T11:44:37.968Z,1.13
2018-12-21T11:47:06.531Z,2.27
2018-12-21T11:49:35.050Z,2.10
2018-12-21T11:52:03.599Z,3.93
2018-12-21T11:54:32.374Z,3.27
2018-12-21T11:57:00.897Z,1.50
2018-12-21T11:59:29.447Z,2.53
2018-12-21T12:01:58.091Z,1.77
2018-12-21T12:04:26.623Z,1.50
2018-12-21T12:06:55.178Z,1.93
2018-12-21T12:09:23.824Z,1.40
2018-12-21T12:11:53.160Z,1.70
2018-12-21T12:14:22.330Z,1.30
2018-12-21T12:16:51.000Z,1.17
2018-12-21T12:19:19.638Z,2.97
2018-12-21T12:21:48.184Z,1.00
2018-12-21T12:24:17.224Z,1.53
2018-12-21T12:26:46.460Z,1.40
2018-12-21T12:29:15.840Z,1.40
2018-12-21T12:31:44.352Z,1.07
2018-12-21T12:34:13.110Z,3.90
2018-12-21T12:36:41.612Z,2.93
2018-12-21T12:39:10.129Z,1.07
2018-12-21T12:41:38.708Z,1.37
2018-12-21T12:44:07.356Z,1.90
2018-12-21T12:46:36.756Z,2.13
2018-12-21T12:49:06.003Z,2.20
2018-12-21T12:51:34.657Z,1.70
2018-12-21T12:54:03.221Z,2.50
2018-12-21T12:56:31.747Z,3.87
2018-12-21T12:59:00.221Z,4.60
2018-12-21T13:01:29.614Z,5.80
2018-12-21T13:03:58.138Z,6.57
2018-12-21T13:06:27.408Z,4.80
2018-12-21T13:08:55.890Z,2.70
2018-12-21T13:11:24.477Z,7.43
2018-12-21T13:13:53.479Z,4.47
2018-12-21T13:16:21.989Z,4.63
2018-12-21T13:18:51.482Z,3.53
2018-12-21T13:21:20.079Z,1.70
2018-12-21T13:23:48.582Z,2.07
2018-12-21T13:26:17.358Z,1.50
2018-12-21T13:28:45.878Z,1.97
2018-12-21T13:31:14.469Z,2.27
2018-12-21T13:33:43.259Z,1.90
2018-12-21T13:36:11.816Z,1.50
2018-12-21T13:38:40.329Z,1.50
2018-12-21T13:41:08.964Z,1.47
2018-12-21T13:43:38.253Z,3.20
2018-12-21T13:46:06.755Z,2.40
2018-12-21T13:48:36.184Z,7.30
2018-12-21T13:51:05.128Z,3.50
2018-12-21T13:53:33.871Z,2.47
2018-12-21T13:56:03.708Z,2.63
2018-12-21T13:58:32.186Z,2.17
2018-12-21T14:01:00.772Z,14.83
2018-12-21T14:03:29.426Z,15.53
2018-12-21T14:05:57.941Z,6.60
2018-12-21T14:08:26.478Z,6.83
2018-12-21T14:10:55.156Z,6.87
2018-12-21T14:13:24.626Z,5.50
2018-12-21T14:15:53.199Z,3.30
2018-12-21T14:18:23.092Z,1.83
2018-12-21T14:20:51.605Z,2.10
2018-12-21T14:23:20.182Z,2.30
2018-12-21T14:28:39.564Z,5.03
2018-12-21T14:31:08.261Z,7.00
2018-12-21T14:33:37.982Z,3.10
2018-12-21T14:36:06.454Z,6.23
2018-12-21T14:38:35.130Z,4.00
2018-12-21T14:41:03.896Z,1.80
2018-12-21T14:43:32.548Z,2.83
2018-12-21T14:46:01.201Z,1.70
2018-12-21T14:48:29.751Z,2.63
2018-12-21T14:50:58.356Z,1.87
2018-12-21T14:53:27.170Z,3.33
2018-12-21T14:55:55.775Z,1.67
2018-12-21T14:58:24.362Z,1.90
2018-12-21T15:00:52.911Z,4.77
2018-12-21T15:03:21.516Z,3.33
2018-12-21T15:05:50.753Z,3.60
2018-12-21T15:08:19.423Z,2.03
2018-12-21T15:10:48.158Z,1.73
2018-12-21T15:13:16.743Z,3.97
2018-12-21T15:15:45.302Z,1.27
2018-12-21T15:18:13.857Z,3.10
2018-12-21T15:20:43.495Z,3.87
2018-12-21T15:23:12.029Z,3.80
2018-12-21T15:25:46.038Z,3.30
2018-12-21T15:28:11.227Z,2.30
2018-12-21T15:30:39.940Z,2.30
2018-12-21T15:33:08.681Z,1.93
2018-12-21T15:35:37.137Z,3.20
2018-12-21T15:38:06.608Z,2.23
2018-12-21T15:40:35.190Z,4.73
2018-12-21T15:43:03.785Z,3.23
2018-12-21T15:45:32.622Z,8.03
2018-12-21T15:48:02.024Z,11.93
2018-12-21T15:50:31.004Z,11.13
2018-12-21T15:52:59.601Z,5.97
2018-12-21T15:55:28.313Z,17.17
2018-12-21T15:57:56.917Z,7.53
2018-12-21T16:00:25.999Z,9.40
2018-12-21T16:02:56.267Z,6.23
2018-12-21T16:05:24.907Z,4.20
2018-12-21T16:07:53.505Z,8.10
2018-12-21T16:10:22.822Z,6.87
2018-12-21T16:12:51.421Z,5.13
2018-12-21T16:15:20.189Z,3.97
2018-12-21T16:17:48.883Z,3.57
2018-12-21T16:20:17.680Z,2.30
2018-12-21T16:22:46.735Z,1.53
2018-12-21T16:25:15.722Z,2.00
2018-12-21T16:27:44.265Z,4.47
2018-12-21T16:30:13.279Z,4.53
2018-12-21T16:32:41.856Z,4.80
2018-12-21T16:35:10.611Z,3.20
2018-12-21T16:37:39.379Z,5.87
2018-12-21T16:40:10.666Z,6.30
2018-12-21T16:42:39.349Z,3.00
2018-12-21T16:45:10.183Z,1.93
2018-12-21T16:47:38.698Z,2.30
2018-12-21T16:50:11.274Z,2.37
2018-12-21T16:52:39.931Z,1.73
2018-12-21T16:55:09.871Z,1.67
2018-12-21T16:57:38.630Z,3.17
2018-12-21T17:00:14.667Z,1.90
2018-12-21T17:02:43.473Z,1.60
2018-12-21T17:05:12.084Z,1.13
2018-12-21T17:07:40.590Z,2.27
2018-12-21T17:10:19.771Z,2.50
2018-12-21T17:12:49.332Z,1.90
2018-12-21T17:15:19.758Z,3.33
2018-12-21T17:17:48.351Z,1.30
2018-12-21T17:20:17.682Z,2.63
2018-12-21T17:22:46.263Z,1.43
2018-12-21T17:25:15.349Z,1.40
2018-12-21T17:27:43.997Z,1.63
2018-12-21T17:30:13.448Z,3.13
2018-12-21T17:32:41.981Z,2.33
2018-12-21T17:35:10.812Z,2.87
2018-12-21T17:37:41.445Z,3.63
2018-12-21T17:40:11.233Z,5.67
2018-12-21T17:42:39.982Z,4.10
2018-12-21T17:45:11.050Z,3.27
2018-12-21T17:47:39.728Z,1.53
2018-12-21T17:50:10.040Z,2.47
2018-12-21T17:52:38.979Z,2.83
2018-12-21T17:55:09.547Z,2.40
2018-12-21T17:57:38.287Z,2.37
2018-12-21T18:00:12.692Z,2.30
2018-12-21T18:02:42.720Z,2.80
2018-12-21T18:05:11.483Z,3.67
2018-12-21T18:07:40.117Z,1.80
2018-12-21T18:10:10.230Z,1.80
2018-12-21T18:12:38.872Z,3.63
2018-12-21T18:15:09.100Z,3.40
2018-12-21T18:17:37.918Z,6.57
2018-12-21T18:20:09.813Z,7.90
2018-12-21T18:22:38.370Z,7.73
2018-12-21T18:25:41.113Z,5.90
2018-12-21T18:28:13.303Z,9.83
2018-12-21T18:30:46.411Z,8.37
2018-12-21T18:33:16.275Z,14.17
2018-12-21T18:35:45.406Z,22.13
2018-12-21T18:38:18.248Z,16.50
2018-12-21T18:40:47.251Z,18.23
2018-12-21T18:43:15.979Z,15.33
2018-12-21T18:45:45.629Z,17.27
2018-12-21T18:48:14.234Z,6.07
2018-12-21T18:50:43.066Z,7.13
2018-12-21T18:53:11.870Z,7.33
2018-12-21T18:55:40.572Z,8.43
2018-12-21T18:58:09.284Z,11.37
2018-12-21T19:00:37.988Z,7.33
2018-12-21T19:03:06.582Z,7.13
2018-12-21T19:05:35.352Z,5.70
2018-12-21T19:08:04.125Z,7.27
2018-12-21T19:10:32.817Z,9.30
2018-12-21T19:13:01.567Z,13.17
2018-12-21T19:15:30.339Z,11.80
2018-12-21T19:17:59.757Z,12.00
2018-12-21T19:20:28.541Z,8.87
2018-12-21T19:22:57.258Z,7.33
2018-12-21T19:25:26.324Z,5.47
2018-12-21T19:27:55.033Z,5.30
2018-12-21T19:30:25.175Z,5.33
2018-12-21T19:32:54.239Z,7.90
2018-12-21T19:35:27.694Z,7.23
2018-12-21T19:37:53.608Z,8.27
2018-12-21T19:40:22.522Z,5.17
2018-12-21T19:42:52.100Z,8.37
2018-12-21T19:45:20.872Z,7.07
2018-12-21T19:47:49.587Z,5.87
2018-12-21T19:50:18.238Z,6.73
2018-12-21T19:52:47.017Z,5.67
2018-12-21T19:55:41.196Z,4.20
2018-12-21T19:58:09.828Z,5.33
2018-12-21T20:00:38.554Z,9.13
2018-12-21T20:03:07.161Z,35.20
2018-12-21T20:05:35.871Z,30.30
2018-12-21T20:08:04.837Z,26.73
2018-12-21T20:10:33.517Z,14.40
2018-12-21T20:13:02.193Z,19.00
2018-12-21T20:15:30.837Z,15.73
2018-12-21T20:17:59.457Z,16.80
2018-12-21T20:20:28.123Z,21.10
2018-12-21T20:22:56.726Z,16.33
2018-12-21T20:25:26.056Z,26.30
2018-12-21T20:27:54.858Z,19.23
2018-12-21T20:30:23.703Z,14.97
2018-12-21T20:32:52.300Z,14.23
2018-12-21T20:35:21.407Z,18.00
2018-12-21T20:37:50.111Z,13.83
2018-12-21T20:40:19.404Z,11.63
2018-12-21T20:42:48.125Z,10.60
2018-12-21T20:45:16.850Z,6.50
2018-12-21T20:47:45.552Z,3.63
2018-12-21T20:50:16.143Z,6.53
2018-12-21T20:52:44.942Z,8.33
2018-12-21T20:55:13.663Z,16.33
2018-12-21T20:57:44.193Z,10.23
2018-12-21T21:00:15.093Z,8.17
2018-12-21T21:02:43.785Z,12.20
2018-12-21T21:05:12.457Z,9.53
2018-12-21T21:07:41.048Z,8.10
2018-12-21T21:10:11.922Z,10.00
2018-12-21T21:12:41.053Z,9.73
2018-12-21T21:15:11.555Z,7.87
2018-12-21T21:17:40.258Z,7.20
2018-12-21T21:20:11.526Z,5.60
2018-12-21T21:22:40.207Z,4.10
2018-12-21T21:25:09.810Z,4.17
2018-12-21T21:27:38.493Z,12.57
2018-12-21T21:30:11.852Z,12.00
2018-12-21T21:32:40.860Z,10.87
2018-12-21T21:35:09.371Z,4.57
2018-12-21T21:37:38.664Z,7.10
2018-12-21T21:40:10.685Z,8.40
2018-12-21T21:42:39.306Z,9.43
2018-12-21T21:45:08.147Z,7.60
2018-12-21T21:47:37.540Z,5.17
2018-12-21T21:50:06.853Z,5.90
2018-12-21T21:52:35.475Z,9.20
2018-12-21T21:55:04.911Z,4.00
2018-12-21T21:57:39.167Z,5.80
2018-12-21T22:00:04.869Z,3.00
2018-12-21T22:02:33.413Z,2.93
2018-12-21T22:05:01.926Z,4.13
2018-12-21T22:07:30.582Z,5.37
2018-12-21T22:09:59.181Z,6.33
2018-12-21T22:12:27.751Z,5.57
2018-12-21T22:14:56.256Z,5.97
2018-12-21T22:17:24.801Z,5.07
2018-12-21T22:19:53.399Z,2.83
2018-12-21T22:22:21.980Z,3.03
2018-12-21T22:24:50.473Z,3.13
2018-12-21T22:27:19.474Z,4.53
2018-12-21T22:29:48.330Z,2.70
2018-12-21T22:32:17.432Z,2.90
2018-12-21T22:34:45.999Z,2.10
2018-12-21T22:37:14.596Z,2.10
2018-12-21T22:39:43.381Z,1.87
2018-12-21T22:42:12.679Z,2.07
2018-12-21T22:44:41.920Z,3.90
2018-12-21T22:47:10.547Z,1.63
2018-12-21T22:49:39.295Z,2.07
2018-12-21T22:52:08.247Z,1.73
2018-12-21T22:54:36.762Z,45.87
2018-12-21T22:57:05.332Z,17.83
2018-12-21T22:59:33.890Z,15.33
2018-12-21T23:02:02.366Z,86.43
2018-12-21T23:04:30.906Z,58.70
2018-12-21T23:06:59.479Z,31.53
2018-12-21T23:09:28.051Z,18.77
2018-12-21T23:11:56.578Z,20.13
2018-12-21T23:14:25.215Z,10.40
2018-12-21T23:16:53.853Z,6.73
2018-12-21T23:19:22.339Z,1.80
2018-12-21T23:21:50.881Z,1.90
2018-12-21T23:24:19.508Z,1.40
2018-12-21T23:26:48.059Z,1.60
2018-12-21T23:29:16.620Z,1.50
2018-12-21T23:31:45.245Z,1.33
2018-12-21T23:34:14.687Z,1.30
2018-12-21T23:36:43.323Z,1.13
2018-12-21T23:39:12.692Z,1.13
2018-12-21T23:41:41.202Z,2.27
2018-12-21T23:44:09.693Z,1.53
2018-12-21T23:46:38.260Z,1.40
2018-12-21T23:49:06.812Z,1.97
2018-12-21T23:51:35.385Z,2.00
2018-12-21T23:54:04.011Z,4.07
2018-12-21T23:56:32.530Z,3.93
2018-12-21T23:59:01.021Z,5.73
